createdAt,value
2023-04-30T00:02:04.396Z,9.57
2023-04-30T00:04:32.524Z,9.33
2023-04-30T00:07:01.092Z,13.30
2023-04-30T00:09:29.109Z,9.77
2023-04-30T00:11:58.494Z,9.17
2023-04-30T00:14:26.701Z,7.50
2023-04-30T00:16:54.771Z,8.63
2023-04-30T00:19:22.836Z,9.20
2023-04-30T00:21:50.920Z,8.60
2023-04-30T00:24:19.154Z,9.17
2023-04-30T00:26:47.734Z,9.10
2023-04-30T00:29:17.056Z,8.23
2023-04-30T00:31:45.211Z,9.47
2023-04-30T00:34:13.386Z,9.80
2023-04-30T00:36:41.636Z,8.90
2023-04-30T00:39:09.835Z,9.13
2023-04-30T00:41:38.375Z,9.10
2023-04-30T00:44:06.636Z,8.97
2023-04-30T00:46:36.049Z,10.40
2023-04-30T00:49:05.804Z,9.33
2023-04-30T00:51:36.252Z,10.30
2023-04-30T00:54:05.664Z,8.87
2023-04-30T00:56:34.894Z,9.70
2023-04-30T00:59:03.063Z,10.00
2023-04-30T01:01:31.980Z,9.77
2023-04-30T01:04:02.001Z,8.80
2023-04-30T01:06:30.155Z,10.23
2023-04-30T01:08:58.462Z,10.97
2023-04-30T01:11:37.803Z,9.20
2023-04-30T01:14:11.552Z,10.23
2023-04-30T01:16:45.394Z,10.30
2023-04-30T01:19:30.485Z,10.73
2023-04-30T01:22:01.551Z,9.93
2023-04-30T01:24:48.246Z,10.77
2023-04-30T01:27:25.430Z,8.00
2023-04-30T01:29:57.475Z,8.90
2023-04-30T01:32:26.777Z,9.83
2023-04-30T01:34:54.905Z,10.50
2023-04-30T01:37:32.392Z,9.83
2023-04-30T01:40:17.082Z,10.10
2023-04-30T01:42:54.456Z,9.93
2023-04-30T01:45:42.967Z,9.70
2023-04-30T01:48:20.498Z,10.63
2023-04-30T01:50:52.971Z,10.60
2023-04-30T01:53:24.988Z,10.07
2023-04-30T01:55:58.485Z,10.10
2023-04-30T01:58:27.555Z,10.07
2023-04-30T02:00:57.044Z,9.97
2023-04-30T02:03:25.536Z,10.43
2023-04-30T02:05:54.744Z,9.40
2023-04-30T02:08:22.852Z,10.30
2023-04-30T02:10:51.016Z,8.80
2023-04-30T02:13:19.138Z,11.00
2023-04-30T02:15:47.360Z,10.33
2023-04-30T02:18:17.006Z,11.03
2023-04-30T02:20:45.280Z,10.37
2023-04-30T02:23:13.414Z,10.07
2023-04-30T02:25:42.327Z,9.00
2023-04-30T02:28:10.910Z,7.00
2023-04-30T02:30:39.368Z,8.97
2023-04-30T02:33:07.630Z,11.00
2023-04-30T02:35:37.163Z,10.30
2023-04-30T02:38:05.737Z,10.57
2023-04-30T02:40:33.949Z,10.53
2023-04-30T02:43:02.261Z,11.83
2023-04-30T02:45:30.364Z,9.70
2023-04-30T02:47:58.391Z,10.67
2023-04-30T02:50:26.489Z,10.50
2023-04-30T02:52:56.960Z,10.00
2023-04-30T02:55:24.998Z,8.60
2023-04-30T02:57:53.033Z,11.97
2023-04-30T03:00:21.496Z,10.37
2023-04-30T03:02:49.789Z,8.80
2023-04-30T03:05:18.262Z,9.93
2023-04-30T03:07:46.575Z,10.63
2023-04-30T03:10:16.206Z,10.50
2023-04-30T03:12:44.176Z,10.23
2023-04-30T03:15:12.672Z,10.83
2023-04-30T03:17:41.756Z,10.30
2023-04-30T03:20:12.641Z,11.07
2023-04-30T03:22:41.047Z,11.07
2023-04-30T03:25:11.592Z,10.97
2023-04-30T03:27:41.077Z,11.47
2023-04-30T03:30:10.108Z,9.40
2023-04-30T03:32:38.903Z,10.80
2023-04-30T03:35:08.000Z,9.87
2023-04-30T03:37:36.250Z,10.93
2023-04-30T03:40:04.847Z,10.80
2023-04-30T03:42:32.950Z,10.20
2023-04-30T03:45:02.358Z,10.90
2023-04-30T03:47:30.425Z,8.97
2023-04-30T03:49:58.601Z,11.10
2023-04-30T03:52:27.325Z,12.03
2023-04-30T03:54:55.381Z,11.47
2023-04-30T03:57:23.815Z,9.80
2023-04-30T03:59:52.490Z,8.50
2023-04-30T04:02:22.278Z,10.13
2023-04-30T04:04:51.681Z,11.20
2023-04-30T04:07:19.798Z,9.97
2023-04-30T04:09:48.260Z,11.37
2023-04-30T04:12:16.416Z,12.53
2023-04-30T04:14:46.619Z,11.60
2023-04-30T04:17:15.104Z,10.70
2023-04-30T04:19:46.447Z,10.80
2023-04-30T04:22:15.471Z,10.87
2023-04-30T04:24:43.835Z,12.43
2023-04-30T04:27:16.403Z,11.53
2023-04-30T04:29:44.982Z,11.20
2023-04-30T04:32:14.589Z,12.17
2023-04-30T04:34:43.999Z,10.87
2023-04-30T04:37:13.520Z,13.50
2023-04-30T04:39:41.591Z,12.27
2023-04-30T04:42:09.767Z,11.90
2023-04-30T04:44:38.214Z,11.27
2023-04-30T04:47:06.773Z,11.70
2023-04-30T04:49:34.812Z,11.77
2023-04-30T04:52:02.999Z,12.03
2023-04-30T04:54:32.423Z,11.70
2023-04-30T04:57:00.489Z,12.10
2023-04-30T04:59:28.540Z,12.17
2023-04-30T05:01:56.774Z,10.97
2023-04-30T05:04:24.900Z,10.83
2023-04-30T05:06:53.090Z,10.77
2023-04-30T05:09:21.370Z,10.80
2023-04-30T05:11:50.814Z,11.37
2023-04-30T05:14:18.842Z,11.40
2023-04-30T05:16:47.095Z,12.20
2023-04-30T05:19:15.270Z,12.80
2023-04-30T05:21:43.523Z,11.07
2023-04-30T05:24:11.598Z,12.40
2023-04-30T05:26:39.744Z,13.83
2023-04-30T05:29:10.678Z,10.70
2023-04-30T05:31:39.022Z,10.00
2023-04-30T05:34:07.300Z,12.40
2023-04-30T05:36:35.530Z,10.10
2023-04-30T05:39:04.479Z,13.80
2023-04-30T05:41:32.702Z,10.53
2023-04-30T05:44:02.754Z,10.77
2023-04-30T05:46:32.222Z,10.73
2023-04-30T05:49:00.365Z,11.63
2023-04-30T05:51:29.359Z,11.27
2023-04-30T05:53:58.270Z,11.67
2023-04-30T05:56:27.130Z,11.17
2023-04-30T05:58:55.158Z,10.07
2023-04-30T06:01:24.748Z,9.47
2023-04-30T06:03:54.404Z,10.90
2023-04-30T06:06:22.537Z,9.23
2023-04-30T06:08:50.575Z,9.30
2023-04-30T06:11:18.836Z,10.70
2023-04-30T06:13:49.481Z,10.37
2023-04-30T06:16:17.858Z,11.17
2023-04-30T06:18:46.170Z,11.23
2023-04-30T06:21:15.575Z,10.00
2023-04-30T06:23:43.577Z,10.10
2023-04-30T06:26:15.011Z,9.90
2023-04-30T06:28:43.251Z,10.50
2023-04-30T06:31:11.295Z,10.13
2023-04-30T06:33:39.851Z,8.83
2023-04-30T06:36:08.040Z,9.43
2023-04-30T06:38:37.838Z,8.40
2023-04-30T06:41:07.641Z,9.50
2023-04-30T06:43:35.734Z,8.60
2023-04-30T06:46:04.980Z,8.30
2023-04-30T06:48:33.120Z,9.27
2023-04-30T06:51:01.118Z,9.30
2023-04-30T06:53:29.264Z,10.10
2023-04-30T06:55:58.805Z,8.53
2023-04-30T06:58:26.878Z,8.77
2023-04-30T07:00:55.007Z,10.27
2023-04-30T07:03:23.320Z,10.80
2023-04-30T07:05:51.605Z,8.70
2023-04-30T07:08:19.663Z,8.80
2023-04-30T07:10:47.752Z,8.47
2023-04-30T07:13:17.532Z,9.70
2023-04-30T07:15:45.856Z,8.60
2023-04-30T07:18:14.090Z,7.57
2023-04-30T07:20:42.315Z,9.80
2023-04-30T07:23:10.560Z,8.57
2023-04-30T07:25:38.759Z,10.90
2023-04-30T07:28:06.870Z,10.20
2023-04-30T07:30:36.776Z,7.80
2023-04-30T07:33:05.097Z,9.90
2023-04-30T07:35:33.318Z,8.90
2023-04-30T07:38:01.321Z,9.33
2023-04-30T07:43:02.869Z,9.80
2023-04-30T07:45:31.805Z,14.93
2023-04-30T07:48:01.564Z,11.07
2023-04-30T07:50:33.790Z,10.17
2023-04-30T07:53:03.349Z,10.37
2023-04-30T07:55:31.509Z,8.47
2023-04-30T07:57:59.934Z,9.20
2023-04-30T08:00:29.474Z,8.93
2023-04-30T08:02:57.730Z,8.80
2023-04-30T08:05:27.379Z,9.40
2023-04-30T08:07:55.570Z,9.47
2023-04-30T08:10:23.638Z,8.60
2023-04-30T08:12:52.967Z,8.73
2023-04-30T08:15:22.489Z,8.33
2023-04-30T08:17:50.891Z,8.50
2023-04-30T08:20:20.028Z,7.40
2023-04-30T08:22:52.339Z,7.80
2023-04-30T08:25:20.519Z,7.07
2023-04-30T08:27:48.655Z,7.30
2023-04-30T08:30:16.994Z,8.20
2023-04-30T08:32:45.309Z,9.20
2023-04-30T08:35:13.456Z,7.30
2023-04-30T08:37:50.614Z,8.50
2023-04-30T08:40:23.476Z,8.80
2023-04-30T08:43:05.919Z,8.83
2023-04-30T08:45:34.709Z,11.83
2023-04-30T08:48:04.608Z,8.83
2023-04-30T08:50:33.094Z,8.40
2023-04-30T08:53:02.891Z,8.47
2023-04-30T08:55:35.604Z,8.07
2023-04-30T08:58:05.854Z,7.83
2023-04-30T09:00:34.920Z,7.30
2023-04-30T09:03:03.443Z,9.03
2023-04-30T09:05:32.033Z,11.33
2023-04-30T09:08:03.538Z,10.10
2023-04-30T09:10:35.119Z,9.80
2023-04-30T09:13:06.662Z,9.87
2023-04-30T09:15:36.129Z,9.07
2023-04-30T09:18:09.339Z,9.00
2023-04-30T09:20:37.946Z,10.33
2023-04-30T09:23:08.259Z,9.87
2023-04-30T09:25:44.998Z,10.03
2023-04-30T09:28:14.375Z,8.83
2023-04-30T09:30:43.247Z,11.57
2023-04-30T09:33:12.178Z,9.97
2023-04-30T09:35:43.195Z,9.97
2023-04-30T09:38:28.691Z,10.90
2023-04-30T09:41:00.018Z,9.37
2023-04-30T09:43:28.467Z,8.27
2023-04-30T09:45:58.976Z,9.17
2023-04-30T09:48:28.413Z,9.53
2023-04-30T09:50:56.914Z,7.97
2023-04-30T09:53:25.076Z,8.53
2023-04-30T09:55:54.533Z,7.83
2023-04-30T09:58:28.910Z,6.70
2023-04-30T10:01:00.278Z,6.60
2023-04-30T10:03:29.202Z,6.47
2023-04-30T10:05:58.099Z,6.87
2023-04-30T10:08:28.695Z,6.87
2023-04-30T10:11:01.199Z,6.43
2023-04-30T10:13:33.586Z,6.30
2023-04-30T10:16:09.802Z,7.27
2023-04-30T10:18:41.651Z,6.57
2023-04-30T10:21:17.379Z,6.70
2023-04-30T10:23:46.249Z,6.83
2023-04-30T10:26:17.054Z,6.27
2023-04-30T10:28:50.361Z,7.17
2023-04-30T10:31:22.458Z,6.77
2023-04-30T10:34:01.124Z,7.07
2023-04-30T10:36:41.463Z,6.67
2023-04-30T10:39:10.025Z,7.60
2023-04-30T10:41:38.364Z,8.10
2023-04-30T10:44:09.619Z,7.10
2023-04-30T10:46:38.179Z,6.63
2023-04-30T10:49:06.396Z,7.13
2023-04-30T10:51:48.735Z,7.30
2023-04-30T10:54:18.861Z,8.10
2023-04-30T10:56:48.530Z,6.73
2023-04-30T10:59:17.951Z,6.73
2023-04-30T11:01:59.998Z,7.70
2023-04-30T11:04:29.145Z,7.20
2023-04-30T11:07:09.395Z,6.43
2023-04-30T11:09:40.779Z,6.97
2023-04-30T11:12:14.071Z,6.33
2023-04-30T11:14:46.115Z,5.97
2023-04-30T11:17:23.112Z,6.80
2023-04-30T11:19:52.928Z,5.93
2023-04-30T11:22:24.414Z,6.60
2023-04-30T11:25:04.729Z,6.90
2023-04-30T11:27:34.218Z,5.60
2023-04-30T11:30:06.351Z,6.47
2023-04-30T11:32:36.857Z,5.83
2023-04-30T11:35:06.637Z,5.77
2023-04-30T11:37:36.423Z,5.23
2023-04-30T11:40:07.848Z,5.23
2023-04-30T11:42:37.755Z,5.30
2023-04-30T11:45:09.649Z,5.43
2023-04-30T11:47:46.226Z,6.87
2023-04-30T11:50:16.189Z,5.97
2023-04-30T11:52:51.010Z,5.50
2023-04-30T11:55:20.223Z,5.70
2023-04-30T11:57:50.525Z,6.17
2023-04-30T12:00:21.512Z,5.73
2023-04-30T12:02:51.306Z,5.17
2023-04-30T12:05:21.552Z,5.43
2023-04-30T12:07:51.835Z,5.23
2023-04-30T12:10:23.492Z,5.13
2023-04-30T12:12:53.210Z,5.80
2023-04-30T12:15:27.134Z,5.60
2023-04-30T12:17:56.819Z,6.20
2023-04-30T12:20:27.415Z,6.70
2023-04-30T12:22:56.143Z,5.60
2023-04-30T12:25:25.330Z,5.40
2023-04-30T12:27:55.935Z,4.83
2023-04-30T12:30:27.887Z,5.63
2023-04-30T12:33:00.912Z,5.90
2023-04-30T12:35:31.382Z,7.70
2023-04-30T12:38:05.027Z,5.47
2023-04-30T12:40:33.583Z,5.40
2023-04-30T12:43:02.746Z,5.60
2023-04-30T12:45:51.461Z,5.70
2023-04-30T12:48:20.865Z,5.10
2023-04-30T12:50:50.098Z,5.30
2023-04-30T12:53:18.317Z,5.60
2023-04-30T12:56:07.529Z,6.13
2023-04-30T12:58:36.999Z,5.43
2023-04-30T13:01:12.639Z,5.57
2023-04-30T13:03:41.415Z,4.83
2023-04-30T13:06:10.394Z,5.10
2023-04-30T13:08:49.864Z,5.30
2023-04-30T13:11:26.104Z,5.07
2023-04-30T13:13:55.877Z,5.43
2023-04-30T13:16:26.122Z,5.47
2023-04-30T13:18:54.683Z,5.30
2023-04-30T13:21:22.868Z,5.60
2023-04-30T13:23:53.468Z,5.27
2023-04-30T13:26:23.808Z,5.43
2023-04-30T13:28:52.205Z,6.17
2023-04-30T13:31:20.584Z,4.57
2023-04-30T13:33:50.277Z,4.67
2023-04-30T13:36:18.997Z,5.10
2023-04-30T13:38:47.172Z,4.80
2023-04-30T13:41:15.590Z,5.07
2023-04-30T13:43:44.606Z,4.60
2023-04-30T13:46:16.708Z,4.67
2023-04-30T13:48:48.088Z,4.80
2023-04-30T13:51:17.563Z,4.60
2023-04-30T13:53:45.773Z,4.50
2023-04-30T13:56:15.373Z,4.40
2023-04-30T13:58:43.476Z,4.17
2023-04-30T14:01:12.061Z,5.27
2023-04-30T14:03:41.044Z,4.80
2023-04-30T14:06:09.368Z,5.20
2023-04-30T14:08:39.264Z,5.27
2023-04-30T14:11:07.428Z,5.70
2023-04-30T14:13:35.750Z,5.47
2023-04-30T14:16:03.979Z,5.63
2023-04-30T14:18:32.548Z,5.40
2023-04-30T14:21:03.165Z,5.47
2023-04-30T14:23:31.250Z,5.53
2023-04-30T14:26:01.027Z,5.50
2023-04-30T14:28:29.087Z,6.00
2023-04-30T14:30:57.377Z,5.20
2023-04-30T14:33:25.668Z,5.27
2023-04-30T14:35:54.466Z,5.30
2023-04-30T14:38:22.451Z,5.37
2023-04-30T14:40:50.593Z,6.07
2023-04-30T14:43:20.096Z,5.40
2023-04-30T14:45:48.392Z,5.50
2023-04-30T14:48:16.575Z,5.63
2023-04-30T14:50:45.079Z,5.50
2023-04-30T14:53:13.160Z,5.13
2023-04-30T14:55:41.598Z,6.23
2023-04-30T14:58:09.777Z,5.33
2023-04-30T15:00:42.008Z,5.50
2023-04-30T15:03:10.258Z,5.80
2023-04-30T15:05:38.399Z,5.60
2023-04-30T15:08:06.761Z,5.30
2023-04-30T15:10:37.869Z,4.90
2023-04-30T15:13:06.266Z,5.53
2023-04-30T15:15:34.477Z,5.20
2023-04-30T15:18:05.877Z,5.60
2023-04-30T15:20:34.108Z,5.10
2023-04-30T15:23:02.348Z,5.40
2023-04-30T15:25:30.455Z,5.00
2023-04-30T15:28:00.130Z,5.33
2023-04-30T15:30:28.159Z,6.00
2023-04-30T15:32:56.214Z,5.77
2023-04-30T15:35:26.494Z,5.30
2023-04-30T15:37:54.910Z,5.57
2023-04-30T15:40:23.264Z,5.20
2023-04-30T15:42:51.590Z,5.50
2023-04-30T15:45:20.710Z,5.20
2023-04-30T15:47:49.090Z,5.60
2023-04-30T15:50:17.217Z,5.73
2023-04-30T15:52:46.693Z,5.27
2023-04-30T15:55:14.875Z,5.83
2023-04-30T15:57:42.999Z,5.90
2023-04-30T16:00:14.467Z,5.70
2023-04-30T16:02:42.805Z,5.43
2023-04-30T16:05:11.729Z,5.20
2023-04-30T16:07:42.368Z,4.73
2023-04-30T16:10:14.574Z,5.10
2023-04-30T16:12:42.838Z,4.97
2023-04-30T16:15:12.516Z,5.23
2023-04-30T16:17:41.057Z,5.40
2023-04-30T16:20:10.462Z,5.43
2023-04-30T16:22:38.677Z,5.47
2023-04-30T16:25:09.886Z,5.53
2023-04-30T16:27:39.660Z,5.40
2023-04-30T16:30:12.085Z,6.40
2023-04-30T16:32:40.272Z,5.53
2023-04-30T16:35:09.474Z,5.80
2023-04-30T16:37:37.831Z,4.90
2023-04-30T16:40:07.662Z,5.60
2023-04-30T16:42:36.933Z,6.00
2023-04-30T16:45:07.656Z,6.67
2023-04-30T16:47:35.845Z,6.43
2023-04-30T16:50:04.197Z,5.87
2023-04-30T16:52:33.218Z,6.30
2023-04-30T16:55:05.117Z,6.30
2023-04-30T16:57:33.325Z,6.33
2023-04-30T17:00:01.691Z,5.83
2023-04-30T17:02:31.807Z,6.20
2023-04-30T17:05:00.327Z,6.23
2023-04-30T17:07:28.348Z,5.97
2023-04-30T17:09:56.877Z,5.60
2023-04-30T17:12:25.629Z,7.23
2023-04-30T17:14:54.085Z,6.87
2023-04-30T17:17:23.402Z,6.90
2023-04-30T17:19:52.883Z,7.80
2023-04-30T17:22:20.975Z,6.87
2023-04-30T17:24:49.126Z,5.90
2023-04-30T17:27:17.364Z,8.17
2023-04-30T17:29:45.592Z,6.50
2023-04-30T17:32:17.280Z,6.40
2023-04-30T17:34:45.474Z,7.43
2023-04-30T17:37:14.912Z,7.23
2023-04-30T17:39:43.144Z,7.60
2023-04-30T17:42:13.037Z,7.47
2023-04-30T17:44:41.164Z,7.30
2023-04-30T17:47:09.208Z,7.43
2023-04-30T17:49:37.706Z,6.60
2023-04-30T17:52:07.014Z,6.70
2023-04-30T17:54:37.438Z,7.30
2023-04-30T17:57:06.525Z,6.60
2023-04-30T17:59:35.310Z,5.80
2023-04-30T18:02:05.473Z,7.73
2023-04-30T18:04:33.815Z,6.80
2023-04-30T18:07:01.934Z,6.20
2023-04-30T18:09:30.497Z,6.33
2023-04-30T18:12:00.254Z,6.60
2023-04-30T18:14:28.667Z,7.97
2023-04-30T18:16:57.013Z,7.17
2023-04-30T18:19:25.247Z,6.47
2023-04-30T18:21:55.798Z,7.17
2023-04-30T18:24:27.601Z,6.30
2023-04-30T18:26:55.818Z,7.20
2023-04-30T18:29:25.305Z,6.50
2023-04-30T18:31:53.384Z,6.73
2023-04-30T18:34:21.452Z,7.30
2023-04-30T18:36:49.527Z,7.30
2023-04-30T18:39:17.608Z,7.20
2023-04-30T18:41:45.630Z,6.13
2023-04-30T18:44:14.201Z,6.73
2023-04-30T18:46:43.733Z,7.43
2023-04-30T18:49:12.054Z,7.60
2023-04-30T18:51:40.128Z,6.87
2023-04-30T18:54:08.210Z,6.60
2023-04-30T18:56:37.650Z,6.63
2023-04-30T18:59:05.655Z,7.20
2023-04-30T19:01:33.782Z,6.30
2023-04-30T19:04:03.582Z,5.90
2023-04-30T19:06:33.426Z,6.17
2023-04-30T19:09:01.874Z,6.10
2023-04-30T19:11:30.444Z,6.50
2023-04-30T19:13:58.957Z,6.70
2023-04-30T19:16:27.190Z,6.90
2023-04-30T19:18:55.200Z,6.57
2023-04-30T19:21:24.639Z,7.50
2023-04-30T19:23:52.665Z,6.80
2023-04-30T19:26:22.000Z,7.00
2023-04-30T19:28:50.210Z,7.20
2023-04-30T19:31:18.471Z,7.50
2023-04-30T19:33:46.629Z,7.43
2023-04-30T19:36:15.416Z,7.03
2023-04-30T19:38:44.972Z,7.77
2023-04-30T19:41:13.161Z,7.23
2023-04-30T19:43:41.440Z,6.27
2023-04-30T19:46:10.090Z,7.80
2023-04-30T19:48:38.344Z,7.20
2023-04-30T19:51:06.716Z,7.93
2023-04-30T19:53:34.738Z,6.60
2023-04-30T19:56:04.541Z,8.40
2023-04-30T19:58:32.612Z,7.20
2023-04-30T20:01:03.129Z,8.20
2023-04-30T20:03:31.353Z,7.50
2023-04-30T20:05:59.870Z,8.60
2023-04-30T20:08:28.067Z,7.47
2023-04-30T20:10:57.233Z,7.93
2023-04-30T20:13:26.932Z,7.40
2023-04-30T20:15:55.123Z,7.53
2023-04-30T20:18:23.232Z,7.67
2023-04-30T20:20:52.281Z,7.70
2023-04-30T20:23:20.647Z,7.50
2023-04-30T20:25:50.159Z,8.07
2023-04-30T20:28:19.526Z,7.40
2023-04-30T20:30:49.451Z,7.93
2023-04-30T20:33:18.814Z,7.40
2023-04-30T20:35:47.664Z,7.67
2023-04-30T20:38:19.543Z,7.93
2023-04-30T20:40:48.208Z,7.00
2023-04-30T20:43:17.047Z,7.60
2023-04-30T20:45:45.961Z,7.83
2023-04-30T20:48:16.102Z,7.60
2023-04-30T20:50:44.763Z,7.10
2023-04-30T20:53:14.204Z,6.77
2023-04-30T20:55:42.410Z,6.30
2023-04-30T20:58:10.933Z,6.50
2023-04-30T21:00:39.332Z,7.60
2023-04-30T21:03:07.992Z,6.20
2023-04-30T21:05:37.510Z,6.93
2023-04-30T21:08:05.772Z,6.80
2023-04-30T21:10:36.843Z,6.80
2023-04-30T21:13:06.156Z,7.23
2023-04-30T21:15:36.510Z,6.67
2023-04-30T21:18:05.108Z,6.90
2023-04-30T21:20:33.253Z,7.17
2023-04-30T21:23:03.252Z,6.77
2023-04-30T21:25:31.552Z,7.23
2023-04-30T21:27:59.909Z,6.53
2023-04-30T21:30:27.904Z,5.53
2023-04-30T21:32:58.358Z,7.10
2023-04-30T21:35:27.624Z,6.20
2023-04-30T21:37:55.864Z,6.90
2023-04-30T21:40:25.637Z,7.13
2023-04-30T21:42:53.773Z,6.97
2023-04-30T21:45:22.259Z,7.13
2023-04-30T21:47:50.493Z,6.50
2023-04-30T21:50:18.660Z,6.67
2023-04-30T21:52:46.898Z,7.60
2023-04-30T21:55:14.925Z,6.90
2023-04-30T21:57:46.495Z,7.10
2023-04-30T22:00:16.857Z,7.80
2023-04-30T22:02:51.651Z,7.97
2023-04-30T22:05:21.132Z,7.07
2023-04-30T22:07:49.364Z,8.07
2023-04-30T22:10:17.412Z,6.67
2023-04-30T22:12:47.964Z,7.50
2023-04-30T22:15:16.590Z,7.70
2023-04-30T22:17:46.174Z,7.00
2023-04-30T22:20:14.539Z,9.10
2023-04-30T22:22:43.314Z,6.50
2023-04-30T22:25:11.461Z,7.07
2023-04-30T22:27:39.612Z,6.83
2023-04-30T22:30:10.053Z,8.47
2023-04-30T22:32:38.509Z,6.63
2023-04-30T22:35:08.136Z,6.90
2023-04-30T22:37:38.544Z,7.30
2023-04-30T22:40:08.121Z,7.50
2023-04-30T22:42:36.582Z,6.93
2023-04-30T22:45:05.350Z,7.33
2023-04-30T22:47:35.391Z,8.27
2023-04-30T22:50:04.772Z,8.40
2023-04-30T22:52:33.167Z,8.67
2023-04-30T22:55:01.717Z,8.17
2023-04-30T22:57:29.778Z,8.30
2023-04-30T22:59:58.116Z,7.87
2023-04-30T23:02:28.607Z,8.57
2023-04-30T23:04:58.188Z,8.13
2023-04-30T23:07:26.221Z,8.40
2023-04-30T23:09:54.815Z,7.60
2023-04-30T23:12:23.498Z,7.80
2023-04-30T23:14:51.925Z,8.07
2023-04-30T23:17:19.993Z,7.37
2023-04-30T23:19:48.094Z,7.93
2023-04-30T23:22:17.978Z,8.40
2023-04-30T23:24:46.140Z,8.17
2023-04-30T23:27:14.200Z,7.50
2023-04-30T23:29:42.969Z,8.23
2023-04-30T23:32:11.115Z,8.23
2023-04-30T23:34:39.194Z,7.90
2023-04-30T23:37:07.283Z,8.50
2023-04-30T23:39:36.862Z,8.30
2023-04-30T23:42:04.943Z,9.20
2023-04-30T23:44:33.022Z,8.73
2023-04-30T23:47:01.350Z,7.87
2023-04-30T23:49:29.405Z,8.17
2023-04-30T23:51:57.425Z,8.63
2023-04-30T23:54:25.496Z,8.93
2023-04-30T23:56:54.870Z,8.27
2023-04-30T23:59:25.211Z,8.80
